Time;durP1;ratioP1;P1;durP2;ratioP2;P2;SDS_P1;SDS_P2;PMS_P1;PMS_P2;Temp;Humidity;BMP_temperature;BMP_pressure;BME280_temperature;BME280_humidity;BME280_pressure;Samples;Min_cycle;Max_cycle;Signal;HPM_P1;HPM_P2
2022/07/16 00:01:47;;;;;;;12.57;5.68;;;;;;;20.46;63.60;94965.28;5051964;28;20185;-74
2022/07/16 00:04:13;;;;;;;11.32;5.13;;;;;;;20.45;64.12;94972.50;5034824;28;20765;-75
2022/07/16 00:06:39;;;;;;;11.48;7.00;;;;;;;20.44;63.97;94970.91;5031353;28;20199;-74
2022/07/16 00:09:04;;;;;;;10.95;7.07;;;;;;;20.43;63.86;94971.16;5031327;28;20179;-75
2022/07/16 00:11:30;;;;;;;16.08;7.95;;;;;;;20.41;63.81;94973.34;5030556;28;20179;-74
2022/07/16 00:13:55;;;;;;;16.33;7.30;;;;;;;20.37;64.24;94970.38;5031221;28;20195;-74
2022/07/16 00:16:20;;;;;;;14.57;8.38;;;;;;;20.34;64.38;94971.72;5031148;28;20179;-74
2022/07/16 00:21:30;;;;;;;8.68;5.35;;;;;;;20.31;64.69;94966.09;5031488;28;20203;-74
2022/07/16 00:23:55;;;;;;;17.10;6.93;;;;;;;20.24;65.21;94958.31;5031558;28;20681;-74
2022/07/16 00:26:21;;;;;;;13.60;6.65;;;;;;;20.23;65.10;94961.28;5031169;28;20738;-75
2022/07/16 00:28:46;;;;;;;13.23;6.85;;;;;;;20.18;65.58;94970.09;5031237;28;20182;-75
2022/07/16 00:31:12;;;;;;;10.05;4.22;;;;;;;20.13;66.19;94974.66;5036079;28;20178;-75
2022/07/16 00:33:38;;;;;;;6.32;4.25;;;;;;;19.96;66.12;94958.88;5051023;28;20567;-74
2022/07/16 00:36:04;;;;;;;8.57;5.63;;;;;;;20.03;66.11;94959.41;5050878;28;20172;-74
2022/07/16 00:38:30;;;;;;;8.82;3.90;;;;;;;20.00;66.41;94967.13;5051029;28;20254;-74
2022/07/16 00:40:55;;;;;;;12.95;5.75;;;;;;;19.92;66.96;94963.13;5041160;28;20186;-74
2022/07/16 00:43:21;;;;;;;8.00;4.63;;;;;;;19.87;66.59;94971.16;5031000;28;20711;-75
2022/07/16 00:45:46;;;;;;;8.48;5.82;;;;;;;19.83;67.00;94983.44;5030957;28;20720;-75
2022/07/16 00:48:12;;;;;;;8.77;4.50;;;;;;;19.85;66.79;94974.09;5030995;28;20179;-74
2022/07/16 00:50:38;;;;;;;9.38;5.07;;;;;;;19.73;66.05;94957.50;5031209;28;20198;-74
2022/07/16 00:53:04;;;;;;;7.68;4.30;;;;;;;19.78;66.37;94970.88;5030780;28;20183;-74
2022/07/16 00:55:30;;;;;;;16.27;5.28;;;;;;;19.76;66.19;94966.84;5030847;28;20204;-75
2022/07/16 00:57:57;;;;;;;7.78;5.30;;;;;;;19.79;66.23;94974.34;5030741;28;20186;-76
2022/07/16 01:00:23;;;;;;;8.18;4.43;;;;;;;19.71;66.06;94965.00;5030799;28;20171;-75
2022/07/16 01:02:49;;;;;;;8.07;3.72;;;;;;;19.72;66.57;94973.81;5030664;28;20176;-76
2022/07/16 01:05:14;;;;;;;6.47;3.85;;;;;;;19.68;66.83;94973.53;5030482;28;20281;-75
2022/07/16 01:07:41;;;;;;;6.28;4.20;;;;;;;19.65;67.34;94976.72;5030688;28;20184;-73
2022/07/16 01:10:07;;;;;;;6.97;3.90;;;;;;;19.58;67.04;94968.97;5030985;28;20945;-73
2022/07/16 01:12:33;;;;;;;6.53;4.22;;;;;;;19.54;67.36;94978.56;5044879;28;20189;-74
2022/07/16 01:14:59;;;;;;;7.03;4.60;;;;;;;19.54;67.22;94978.56;5050611;28;20250;-74
2022/07/16 01:17:24;;;;;;;7.00;3.47;;;;;;;19.51;67.06;94978.28;5050554;28;20175;-74
2022/07/16 01:19:50;;;;;;;4.90;3.28;;;;;;;19.25;67.30;94947.22;5050341;28;20232;-74
2022/07/16 01:22:20;;;;;;;6.63;3.42;;;;;;;19.46;67.45;94975.59;5031613;28;20163;-74
2022/07/16 01:24:47;;;;;;;6.07;4.00;;;;;;;19.50;67.58;94976.69;5050465;28;20709;-74
2022/07/16 01:27:13;;;;;;;6.68;4.28;;;;;;;19.53;67.92;94981.50;5050657;28;20163;-74
2022/07/16 01:29:39;;;;;;;7.50;3.90;;;;;;;19.56;67.94;94975.63;5032608;28;20163;-74
2022/07/16 01:32:05;;;;;;;8.88;3.85;;;;;;;19.57;67.89;94987.91;5050298;28;20174;-74
2022/07/16 01:34:31;;;;;;;6.82;4.47;;;;;;;19.58;67.60;94984.19;5050083;28;20182;-74
2022/07/16 01:37:03;;;;;;;6.97;3.97;;;;;;;19.56;68.17;94981.75;5050294;28;20159;-74
2022/07/16 01:39:30;;;;;;;6.25;3.70;;;;;;;19.49;67.83;94983.09;5050419;28;20171;-74
2022/07/16 01:41:58;;;;;;;5.65;3.05;;;;;;;19.45;68.63;94984.66;5050474;28;20563;-74
2022/07/16 01:44:24;;;;;;;6.72;3.75;;;;;;;19.40;68.83;94968.59;5050478;28;20159;-74
2022/07/16 01:46:51;;;;;;;6.88;3.35;;;;;;;19.45;68.56;94977.44;5050070;28;20199;-74
2022/07/16 01:49:17;;;;;;;10.65;4.00;;;;;;;19.28;68.55;94960.84;5050123;28;20183;-74
2022/07/16 01:51:42;;;;;;;6.47;3.10;;;;;;;19.39;68.13;94983.81;5050262;28;20178;-74
2022/07/16 01:54:08;;;;;;;5.00;3.50;;;;;;;19.36;68.71;94986.22;5050259;28;20190;-74
2022/07/16 01:56:33;;;;;;;4.35;3.00;;;;;;;19.30;69.26;94989.94;5050154;28;20179;-74
2022/07/16 01:58:59;;;;;;;7.22;3.10;;;;;;;19.25;68.84;94996.06;5050223;28;20298;-74
2022/07/16 02:01:24;;;;;;;10.63;4.20;;;;;;;19.01;68.81;94963.69;5050146;28;20253;-74
2022/07/16 02:03:49;;;;;;;5.55;3.40;;;;;;;18.97;68.68;94967.13;5050175;28;20223;-75
2022/07/16 02:06:15;;;;;;;8.27;3.15;;;;;;;19.09;68.42;94989.88;5050294;28;20594;-75
2022/07/16 02:08:40;;;;;;;13.68;3.88;;;;;;;19.10;68.20;94988.00;5050309;28;20206;-75
2022/07/16 02:11:07;;;;;;;6.00;3.40;;;;;;;19.04;68.16;94992.50;5050309;28;20172;-75
2022/07/16 02:13:33;;;;;;;6.00;3.47;;;;;;;19.01;68.46;94994.91;5050228;28;20178;-75
2022/07/16 02:15:58;;;;;;;5.78;3.55;;;;;;;18.89;68.27;94976.41;5043378;28;20642;-74
2022/07/16 02:18:23;;;;;;;3.50;3.08;;;;;;;18.91;68.64;95000.97;5030174;28;20175;-75
2022/07/16 02:20:49;;;;;;;6.85;3.50;;;;;;;18.91;68.46;94995.66;5032275;28;20220;-75
2022/07/16 02:23:14;;;;;;;4.22;3.30;;;;;;;18.77;68.24;94981.16;5045271;28;20176;-74
2022/07/16 02:25:40;;;;;;;5.47;3.40;;;;;;;18.91;68.18;94994.84;5028964;28;20192;-75
2022/07/16 02:28:06;;;;;;;6.43;3.30;;;;;;;18.76;69.14;94979.56;5029779;28;20593;-75
2022/07/16 02:30:33;;;;;;;3.63;3.10;;;;;;;18.86;69.11;95003.59;5029763;28;20258;-74
2022/07/16 02:32:58;;;;;;;7.32;3.28;;;;;;;18.59;69.05;94981.59;5030119;28;20563;-74
2022/07/16 02:35:24;;;;;;;7.13;2.78;;;;;;;18.54;69.72;95016.97;5033638;28;20175;-75
2022/07/16 02:37:50;;;;;;;7.68;3.03;;;;;;;18.47;69.87;95011.06;5033598;28;20226;-74
2022/07/16 02:40:16;;;;;;;4.80;2.90;;;;;;;18.47;70.23;95008.41;5033406;28;20179;-75
2022/07/16 02:42:41;;;;;;;5.95;3.10;;;;;;;18.46;70.12;94988.13;5033511;28;20160;-75
2022/07/16 02:45:07;;;;;;;7.35;4.07;;;;;;;18.62;69.93;95007.72;5033144;28;20595;-75
2022/07/16 02:47:34;;;;;;;4.00;2.70;;;;;;;18.69;69.76;95010.97;5033203;28;20179;-75
2022/07/16 02:49:59;;;;;;;10.77;4.88;;;;;;;18.74;69.90;95003.81;5033661;28;20172;-75
2022/07/16 02:52:25;;;;;;;8.65;5.10;;;;;;;18.80;69.20;95005.44;5033355;28;20168;-75
2022/07/16 02:54:51;;;;;;;6.93;3.55;;;;;;;18.85;69.10;95004.69;5033214;28;20259;-75
2022/07/16 02:57:16;;;;;;;11.10;3.75;;;;;;;18.83;69.56;95010.28;5033069;28;20171;-74
2022/07/16 02:59:41;;;;;;;5.80;2.67;;;;;;;18.79;69.51;95013.72;5033128;28;20646;-75
2022/07/16 03:02:07;;;;;;;4.18;2.83;;;;;;;18.75;69.68;95012.63;5033446;28;20176;-75
2022/07/16 03:04:32;;;;;;;17.70;8.65;;;;;;;18.74;69.88;95016.34;5032891;28;20315;-75
2022/07/16 03:06:58;;;;;;;12.25;5.13;;;;;;;18.69;69.57;95019.78;5032724;28;20249;-75
2022/07/16 03:09:23;;;;;;;15.77;8.85;;;;;;;18.70;69.77;95017.91;5032951;28;20243;-75
2022/07/16 03:11:49;;;;;;;11.48;6.05;;;;;;;18.64;69.93;95005.63;5032670;28;20172;-75
2022/07/16 03:14:14;;;;;;;8.55;3.53;;;;;;;18.59;69.66;94994.94;5032714;28;20178;-75
2022/07/16 03:16:39;;;;;;;16.13;4.45;;;;;;;18.69;70.07;95019.78;5032546;28;20290;-75
2022/07/16 03:19:05;;;;;;;11.65;4.10;;;;;;;18.70;70.05;95017.91;5033002;28;20168;-75
2022/07/16 03:21:30;;;;;;;11.15;4.30;;;;;;;18.71;69.94;95016.84;5032561;28;20684;-75
2022/07/16 03:23:56;;;;;;;9.55;4.28;;;;;;;18.73;69.72;95017.41;5032586;28;20180;-75
2022/07/16 03:26:21;;;;;;;7.05;3.20;;;;;;;18.69;69.81;95022.44;5032455;28;20283;-75
2022/07/16 03:28:46;;;;;;;8.75;3.47;;;;;;;18.70;70.19;95032.06;5032323;28;20203;-75
2022/07/16 03:31:12;;;;;;;8.95;4.40;;;;;;;18.65;70.14;95009.88;5031471;28;20183;-75
2022/07/16 03:33:37;;;;;;;9.93;4.40;;;;;;;18.79;69.98;95022.50;5041464;28;20684;-75
2022/07/16 03:36:03;;;;;;;9.88;3.28;;;;;;;18.75;69.89;95029.44;5032067;28;20167;-75
2022/07/16 03:41:12;;;;;;;8.07;2.80;;;;;;;18.77;69.69;95016.63;5040685;28;20185;-74
2022/07/16 03:43:38;;;;;;;30.00;7.35;;;;;;;18.98;69.74;95041.56;5051667;28;20174;-75
2022/07/16 03:46:04;;;;;;;8.73;2.55;;;;;;;19.01;69.22;95049.06;5050961;28;20286;-75
2022/07/16 03:48:29;;;;;;;13.38;3.63;;;;;;;19.13;69.40;95043.50;5051991;28;20171;-76
2022/07/16 03:50:55;;;;;;;12.38;4.53;;;;;;;19.21;69.78;95048.34;5052262;28;20624;-76
2022/07/16 03:53:20;;;;;;;10.50;3.63;;;;;;;19.32;69.44;95043.88;5052090;28;20190;-76
2022/07/16 03:55:45;;;;;;;6.72;3.40;;;;;;;19.36;68.44;95040.44;5051626;28;20163;-76
2022/07/16 03:58:11;;;;;;;5.35;2.80;;;;;;;19.48;67.84;95040.22;5045783;28;20168;-76
2022/07/16 04:00:36;;;;;;;4.38;2.88;;;;;;;19.56;67.46;95035.19;5044688;28;20163;-76
2022/07/16 04:03:02;;;;;;;5.50;3.35;;;;;;;19.65;66.97;95042.69;5041357;28;20258;-76
2022/07/16 04:05:27;;;;;;;6.68;3.08;;;;;;;19.66;67.15;95037.09;5031631;28;20232;-76
2022/07/16 04:07:52;;;;;;;5.38;2.80;;;;;;;19.80;66.92;95043.56;5031892;28;20164;-76
2022/07/16 04:10:18;;;;;;;9.25;3.05;;;;;;;19.94;66.24;95039.31;5031766;28;20175;-76
2022/07/16 04:12:43;;;;;;;15.68;4.50;;;;;;;20.03;66.13;95036.91;5031047;28;20634;-76
2022/07/16 04:15:09;;;;;;;8.93;4.68;;;;;;;20.09;66.23;95021.66;5041801;28;20179;-76
2022/07/16 04:17:34;;;;;;;6.95;4.40;;;;;;;20.52;66.58;95039.09;5045528;28;20175;-76
2022/07/16 04:19:59;;;;;;;9.00;2.97;;;;;;;20.76;65.28;95040.16;5030633;28;20172;-76
2022/07/16 04:22:25;;;;;;;10.98;3.63;;;;;;;20.74;65.93;94998.69;5030969;28;20629;-76
2022/07/16 04:24:50;;;;;;;6.75;3.00;;;;;;;21.17;65.15;95037.41;5003437;28;20202;-76
2022/07/16 04:27:16;;;;;;;7.53;2.92;;;;;;;21.32;63.98;95034.69;5023133;28;20741;-77
2022/07/16 04:29:41;;;;;;;11.63;3.90;;;;;;;21.51;64.88;95035.72;5016477;28;20178;-77
2022/07/16 04:32:07;;;;;;;13.40;3.92;;;;;;;21.69;62.14;95035.09;5031607;28;20174;-77
2022/07/16 04:34:32;;;;;;;5.20;2.95;;;;;;;21.71;62.46;95016.84;5032028;28;20171;-77
2022/07/16 04:36:58;;;;;;;8.45;2.55;;;;;;;22.12;59.54;95048.81;5038072;28;20224;-77
2022/07/16 04:39:23;;;;;;;3.50;2.40;;;;;;;22.20;56.07;95029.44;5034551;28;20634;-76
2022/07/16 04:41:48;;;;;;;15.50;2.80;;;;;;;22.52;55.49;95048.53;5031473;28;20748;-77
2022/07/16 04:44:14;;;;;;;7.95;2.28;;;;;;;22.71;56.56;95053.19;5031607;28;20160;-77
2022/07/16 04:46:39;;;;;;;4.32;3.03;;;;;;;22.97;54.27;95054.59;5022882;28;20195;-77
2022/07/16 04:49:05;;;;;;;6.80;2.67;;;;;;;23.23;53.24;95055.16;5031662;28;20233;-77
2022/07/16 04:51:31;;;;;;;4.47;2.60;;;;;;;23.47;53.46;95055.94;5031715;28;20225;-77
2022/07/16 04:53:56;;;;;;;6.80;2.80;;;;;;;23.82;51.65;95064.69;5035943;28;20167;-76
2022/07/16 04:56:22;;;;;;;4.70;2.83;;;;;;;24.06;50.37;95068.13;5036350;28;20176;-77
2022/07/16 04:58:47;;;;;;;3.30;2.53;;;;;;;24.17;51.04;95075.00;5013418;28;20184;-76
2022/07/16 05:01:13;;;;;;;4.43;2.50;;;;;;;24.41;50.01;95069.53;5042095;28;20175;-77
2022/07/16 05:03:38;;;;;;;5.55;2.90;;;;;;;24.80;49.18;95071.91;5051180;28;20215;-77
2022/07/16 05:06:03;;;;;;;4.28;2.85;;;;;;;25.15;48.73;95076.72;5051101;28;20199;-77
2022/07/16 05:08:29;;;;;;;4.85;2.78;;;;;;;25.56;48.36;95074.06;5051130;28;20179;-77
2022/07/16 05:10:55;;;;;;;5.43;2.67;;;;;;;25.97;47.24;95069.75;5034295;28;20172;-77
2022/07/16 05:13:20;;;;;;;5.05;2.50;;;;;;;26.39;45.10;95076.69;5032346;28;20156;-77
2022/07/16 05:15:46;;;;;;;3.90;2.70;;;;;;;26.41;44.65;95079.88;5028558;28;20645;-76
2022/07/16 05:18:13;;;;;;;2.65;2.25;;;;;;;26.49;44.01;95071.84;5036955;28;20186;-77
2022/07/16 05:20:38;;;;;;;7.57;2.45;;;;;;;26.85;43.97;95057.50;5040597;28;20184;-76
2022/07/16 05:23:04;;;;;;;6.05;3.10;;;;;;;27.47;42.47;95071.88;5038208;28;20182;-77
2022/07/16 05:25:29;;;;;;;4.63;3.10;;;;;;;27.72;41.61;95075.81;5040706;28;20287;-77
2022/07/16 05:27:55;;;;;;;5.68;3.40;;;;;;;28.02;40.60;95069.50;5037133;28;20653;-77
2022/07/16 05:30:20;;;;;;;8.80;3.38;;;;;;;28.36;40.55;95073.44;5048160;28;20233;-77
2022/07/16 05:32:46;;;;;;;11.98;6.57;;;;;;;28.83;39.63;95077.91;5035735;28;20645;-77
2022/07/16 05:35:14;;;;;;;11.18;5.18;;;;;;;29.18;39.46;95075.13;5050784;28;20182;-77
2022/07/16 05:37:40;;;;;;;5.78;3.17;;;;;;;29.80;38.43;95080.06;5050244;28;20179;-76
2022/07/16 05:40:06;;;;;;;10.95;3.22;;;;;;;29.97;37.26;95077.28;5050434;28;20237;-76
2022/07/16 05:42:31;;;;;;;5.50;3.20;;;;;;;30.25;36.41;95075.69;5050280;28;20171;-76
2022/07/16 05:44:57;;;;;;;6.90;3.35;;;;;;;30.51;36.21;95080.97;5050065;28;20718;-76
2022/07/16 05:47:22;;;;;;;6.63;3.30;;;;;;;30.71;36.52;95082.06;5036191;28;20646;-76
2022/07/16 05:49:48;;;;;;;5.60;3.38;;;;;;;30.89;36.83;95086.22;5025123;28;20583;-77
2022/07/16 05:52:13;;;;;;;6.95;3.38;;;;;;;31.33;36.11;95086.63;5030651;28;20199;-76
2022/07/16 05:54:39;;;;;;;10.35;4.18;;;;;;;31.59;35.91;95078.97;5037980;28;20560;-76
2022/07/16 05:57:04;;;;;;;6.05;3.50;;;;;;;31.96;35.68;95087.19;5049002;28;20194;-76
2022/07/16 05:59:29;;;;;;;11.80;3.47;;;;;;;32.05;35.14;95045.06;5030188;28;20172;-76
2022/07/16 06:01:55;;;;;;;6.53;3.63;;;;;;;32.16;34.37;95084.38;5030129;28;20255;-75
2022/07/16 06:04:20;;;;;;;3.83;3.00;;;;;;;31.85;35.07;95081.41;5028038;28;20303;-76
2022/07/16 06:06:46;;;;;;;8.80;2.90;;;;;;;31.66;37.03;95070.25;5028731;28;20207;-75
2022/07/16 06:09:12;;;;;;;6.68;3.15;;;;;;;31.58;36.31;95077.38;5029279;28;20171;-76
2022/07/16 06:11:38;;;;;;;4.20;2.47;;;;;;;31.58;37.41;95077.38;5033385;28;20954;-76
2022/07/16 06:14:03;;;;;;;6.78;2.88;;;;;;;31.61;37.50;95075.91;5028302;28;20188;-76
2022/07/16 06:16:29;;;;;;;7.05;2.60;;;;;;;31.72;37.28;95075.16;5033584;28;20234;-73
2022/07/16 06:18:54;;;;;;;6.15;2.30;;;;;;;31.86;37.08;95063.94;5021086;28;20675;-73
2022/07/16 06:21:20;;;;;;;9.05;2.63;;;;;;;32.10;37.26;95068.56;5020538;28;20192;-73
2022/07/16 06:23:45;;;;;;;6.43;2.55;;;;;;;32.20;37.06;95059.94;5019446;28;20180;-75
2022/07/16 06:26:10;;;;;;;7.57;2.42;;;;;;;32.23;36.92;95062.00;5021862;28;20200;-76
2022/07/16 06:28:36;;;;;;;6.90;2.30;;;;;;;32.19;37.34;95069.25;5027140;28;20912;-76
2022/07/16 06:31:01;;;;;;;10.63;3.00;;;;;;;32.16;37.60;95061.78;5027599;28;20176;-76
2022/07/16 06:33:27;;;;;;;4.93;2.53;;;;;;;32.21;37.09;95064.28;5027008;28;20195;-76
2022/07/16 06:35:52;;;;;;;5.15;2.67;;;;;;;32.13;36.77;95057.78;5028781;28;20622;-75
2022/07/16 06:38:17;;;;;;;6.70;3.78;;;;;;;32.21;36.91;95064.28;5022885;28;20278;-74
2022/07/16 06:40:44;;;;;;;6.00;2.80;;;;;;;32.20;37.80;95063.47;5008077;28;20179;-73
2022/07/16 06:43:10;;;;;;;4.50;2.60;;;;;;;32.26;37.57;95068.72;5021322;28;20197;-74
2022/07/16 06:45:36;;;;;;;6.28;2.60;;;;;;;32.34;36.47;95065.84;5027482;28;20200;-76
2022/07/16 06:48:01;;;;;;;8.73;4.13;;;;;;;32.52;35.89;95066.38;5022267;28;20188;-76
2022/07/16 06:50:27;;;;;;;12.52;6.47;;;;;;;32.52;36.25;95067.16;5021881;28;20177;-75
2022/07/16 06:52:53;;;;;;;12.85;9.68;;;;;;;32.54;35.90;95064.88;5022770;28;22061;-75
2022/07/16 06:55:18;;;;;;;7.47;3.25;;;;;;;32.15;36.34;95071.88;5026636;28;20198;-75
2022/07/16 06:57:43;;;;;;;5.03;2.78;;;;;;;31.67;38.44;95071.84;5021080;28;20898;-76
2022/07/16 07:00:09;;;;;;;6.13;2.60;;;;;;;31.64;38.27;95073.34;5025316;28;20267;-76
2022/07/16 07:02:35;;;;;;;6.43;2.38;;;;;;;31.80;38.52;95071.53;5020973;28;20208;-76
2022/07/16 07:05:00;;;;;;;8.95;2.90;;;;;;;31.50;38.35;95072.81;5027864;28;21036;-76
2022/07/16 07:07:26;;;;;;;7.68;3.38;;;;;;;31.46;39.03;95077.38;5024464;28;20192;-76
2022/07/16 07:09:51;;;;;;;4.32;2.65;;;;;;;31.59;38.49;95081.69;5022241;28;21975;-76
2022/07/16 07:12:17;;;;;;;5.45;2.67;;;;;;;31.71;38.72;95080.94;5026870;28;20680;-76
2022/07/16 07:14:42;;;;;;;8.65;2.70;;;;;;;32.02;37.41;95070.28;5020572;28;20183;-76
2022/07/16 07:17:07;;;;;;;11.00;2.63;;;;;;;32.31;37.40;95068.47;5022299;28;20183;-79
2022/07/16 07:19:33;;;;;;;6.60;2.33;;;;;;;32.58;37.70;95060.34;5025840;28;20187;-76
2022/07/16 07:21:59;;;;;;;6.88;3.20;;;;;;;32.77;36.06;95064.41;5021214;28;20172;-76
2022/07/16 07:24:24;;;;;;;5.32;2.63;;;;;;;32.59;36.57;95064.66;5024235;28;20191;-76
2022/07/16 07:26:49;;;;;;;5.57;2.80;;;;;;;32.44;36.22;95062.63;5024094;28;20195;-76
2022/07/16 07:29:15;;;;;;;4.68;2.28;;;;;;;32.58;37.26;95065.78;5019908;28;20552;-76
2022/07/16 07:31:40;;;;;;;6.03;3.13;;;;;;;32.85;36.34;95061.53;5024710;28;20183;-76
2022/07/16 07:34:05;;;;;;;2.78;2.45;;;;;;;33.06;35.91;95074.94;5024895;28;20176;-77
2022/07/16 07:36:31;;;;;;;3.33;2.17;;;;;;;33.20;36.72;95074.56;5020387;28;20898;-76
2022/07/16 07:38:56;;;;;;;5.40;2.42;;;;;;;33.42;35.58;95078.66;5022238;28;20186;-75
2022/07/16 07:41:22;;;;;;;6.50;2.60;;;;;;;33.66;34.96;95073.03;5021564;28;20843;-76
2022/07/16 07:43:47;;;;;;;4.50;2.40;;;;;;;33.81;34.98;95074.22;5021102;28;20188;-78
2022/07/16 07:46:12;;;;;;;6.18;2.72;;;;;;;33.97;34.73;95083.22;5020373;28;20179;-79
2022/07/16 07:48:38;;;;;;;3.35;2.28;;;;;;;33.93;35.13;95080.38;5018995;28;20258;-77
2022/07/16 07:51:04;;;;;;;7.80;2.60;;;;;;;33.88;33.55;95058.78;5030094;28;20175;-74
2022/07/16 07:53:29;;;;;;;5.65;2.22;;;;;;;33.92;34.74;95065.13;5031233;28;20179;-77
2022/07/16 07:55:54;;;;;;;2.40;2.15;;;;;;;33.95;32.89;95069.88;5036098;28;20685;-78
2022/07/16 07:58:20;;;;;;;7.78;3.25;;;;;;;34.13;32.94;95089.44;5039023;28;20228;-76
2022/07/16 08:00:45;;;;;;;9.30;2.60;;;;;;;33.96;32.32;95082.41;5025392;28;20571;-75
2022/07/16 08:03:11;;;;;;;6.30;2.45;;;;;;;33.76;33.23;95077.22;5026664;28;20173;-76
2022/07/16 08:05:37;;;;;;;5.80;2.30;;;;;;;33.87;33.49;95081.78;5025638;28;20372;-76
2022/07/16 08:08:03;;;;;;;3.75;2.42;;;;;;;34.00;33.70;95072.34;5029755;28;20179;-77
2022/07/16 08:10:28;;;;;;;6.22;2.20;;;;;;;34.01;33.50;95075.88;5028873;28;20183;-77
2022/07/16 08:12:54;;;;;;;2.85;2.63;;;;;;;33.93;33.92;95052.25;5026995;28;20208;-77
2022/07/16 08:15:19;;;;;;;4.57;2.58;;;;;;;33.61;33.48;95051.44;5025703;28;20711;-76
2022/07/16 08:17:45;;;;;;;3.53;2.20;;;;;;;33.51;34.21;95062.91;5023865;28;20657;-76
2022/07/16 08:20:11;;;;;;;5.25;2.33;;;;;;;33.44;33.81;95073.66;5028218;28;20214;-77
2022/07/16 08:22:37;;;;;;;6.63;2.53;;;;;;;33.62;32.79;95074.91;5029879;28;20653;-77
2022/07/16 08:27:48;;;;;;;6.45;4.38;;;;;;;33.63;32.82;95074.56;5023507;28;20198;-77
2022/07/16 08:30:13;;;;;;;4.65;3.08;;;;;;;33.09;34.18;95066.06;5025213;28;20191;-77
2022/07/16 08:32:39;;;;;;;3.30;2.53;;;;;;;33.20;34.84;95072.63;5021162;28;20187;-77
2022/07/16 08:35:05;;;;;;;12.30;4.82;;;;;;;33.14;33.99;95054.88;5025736;28;20552;-78
2022/07/16 08:37:35;;;;;;;4.82;2.13;;;;;;;33.36;34.73;95063.69;5029550;28;20436;-77
2022/07/16 08:40:05;;;;;;;7.18;2.10;;;;;;;33.68;34.38;95071.53;5025972;28;20180;-77
2022/07/16 08:42:33;;;;;;;3.50;2.15;;;;;;;33.94;33.67;95073.75;5028665;28;20633;-77
2022/07/16 08:44:59;;;;;;;12.13;2.55;;;;;;;34.04;33.92;95067.75;5036607;28;20183;-77
2022/07/16 08:47:26;;;;;;;8.02;2.20;;;;;;;33.96;33.77;95054.28;5033130;28;20305;-77
2022/07/16 08:49:52;;;;;;;3.15;2.47;;;;;;;34.07;33.86;95080.72;5034073;28;20270;-77
2022/07/16 08:52:20;;;;;;;10.27;2.65;;;;;;;34.11;32.62;95075.31;5042060;28;20240;-78
2022/07/16 08:54:48;;;;;;;3.65;2.00;;;;;;;34.05;32.81;95058.41;5040766;28;20285;-77
2022/07/16 08:57:15;;;;;;;5.47;1.95;;;;;;;34.16;32.92;95085.22;5024856;28;20199;-76
2022/07/16 08:59:41;;;;;;;4.10;2.38;;;;;;;34.19;32.50;95074.34;5025891;28;20211;-77
2022/07/16 09:02:06;;;;;;;4.43;1.92;;;;;;;34.24;33.35;95076.84;5024490;28;20188;-76
2022/07/16 09:04:32;;;;;;;6.07;2.35;;;;;;;34.20;32.71;95080.59;5026418;28;20230;-76
2022/07/16 09:06:57;;;;;;;3.95;2.13;;;;;;;33.91;33.64;95082.66;5029102;28;20211;-76
2022/07/16 09:09:22;;;;;;;4.00;2.20;;;;;;;33.80;34.87;95078.09;5031834;28;20645;-76
2022/07/16 09:11:48;;;;;;;6.88;2.70;;;;;;;33.73;33.62;95076.00;5017095;28;20183;-75
2022/07/16 09:14:15;;;;;;;5.10;2.70;;;;;;;33.69;33.93;95078.59;5021856;28;20274;-75
2022/07/16 09:16:44;;;;;;;4.68;2.20;;;;;;;33.71;32.97;95079.03;5026898;28;20645;-74
2022/07/16 09:19:19;;;;;;;7.00;2.55;;;;;;;33.82;33.53;95062.91;5020322;28;20273;-74
2022/07/16 09:22:01;;;;;;;4.70;2.22;;;;;;;33.86;33.33;95073.94;5022043;28;20266;-75
2022/07/16 09:24:48;;;;;;;3.97;2.13;;;;;;;33.78;34.15;95067.53;5018228;28;20282;-74
2022/07/16 09:27:16;;;;;;;2.63;2.10;;;;;;;33.62;33.69;95037.44;5016002;28;20207;-75
2022/07/16 09:29:58;;;;;;;3.83;2.20;;;;;;;33.66;33.39;95049.25;5019580;28;20564;-75
2022/07/16 09:32:39;;;;;;;14.30;2.40;;;;;;;33.70;33.76;95066.53;5023008;28;20179;-75
2022/07/16 09:35:06;;;;;;;8.75;2.67;;;;;;;33.74;34.20;95052.16;5020160;28;20210;-75
2022/07/16 09:37:57;;;;;;;4.97;2.30;;;;;;;33.86;32.90;95050.16;5016408;28;20175;-75
2022/07/16 09:40:45;;;;;;;4.18;2.28;;;;;;;33.56;32.69;95052.50;5019205;28;20168;-76
2022/07/16 09:43:11;;;;;;;4.97;2.20;;;;;;;33.39;33.50;95052.03;5019378;28;20180;-74
2022/07/16 09:45:39;;;;;;;3.13;2.00;;;;;;;33.24;35.22;95051.69;5025398;28;20235;-75
2022/07/16 09:48:37;;;;;;;11.63;2.20;;;;;;;32.76;34.13;95038.25;5025645;28;20184;-76
2022/07/16 09:51:20;;;;;;;3.00;2.10;;;;;;;32.82;36.20;95056.75;5021247;28;20215;-74
2022/07/16 09:53:47;;;;;;;2.15;1.90;;;;;;;32.97;35.97;95047.81;5023639;28;20270;-74
2022/07/16 09:56:15;;;;;;;7.50;2.92;;;;;;;33.00;34.74;95049.06;5026724;28;20657;-75
2022/07/16 09:58:46;;;;;;;5.93;3.10;;;;;;;33.02;33.83;95044.06;5022444;28;20580;-74
2022/07/16 10:01:13;;;;;;;10.70;3.70;;;;;;;32.68;32.94;95039.16;5023871;28;20621;-74
2022/07/16 10:03:38;;;;;;;6.65;2.30;;;;;;;32.66;32.93;95036.00;5022662;28;20234;-74
2022/07/16 10:06:04;;;;;;;2.45;2.25;;;;;;;32.66;34.21;95031.31;5023175;28;20215;-75
2022/07/16 10:08:31;;;;;;;3.63;2.25;;;;;;;32.63;34.02;95025.75;5022124;28;20673;-74
2022/07/16 10:10:57;;;;;;;5.07;3.25;;;;;;;32.77;35.39;95031.66;5023226;28;20180;-74
2022/07/16 10:13:26;;;;;;;8.80;2.17;;;;;;;32.89;34.30;95034.31;5022417;28;20550;-74
2022/07/16 10:15:52;;;;;;;3.25;2.85;;;;;;;32.85;34.11;95036.19;5023650;28;20222;-75
2022/07/16 10:19:01;;;;;;;3.88;2.38;;;;;;;32.89;34.66;95026.13;5021801;28;20184;-74
2022/07/16 10:21:26;;;;;;;4.88;2.20;;;;;;;32.96;34.54;95035.31;5004914;28;20195;-74
2022/07/16 10:24:09;;;;;;;6.03;3.10;;;;;;;32.95;32.93;95028.25;5023449;28;20174;-74
2022/07/16 10:26:35;;;;;;;4.57;2.88;;;;;;;32.77;33.31;95020.75;5021858;28;20287;-75
2022/07/16 10:29:03;;;;;;;8.73;2.90;;;;;;;32.70;33.79;95017.81;5026603;28;20204;-74
2022/07/16 10:31:36;;;;;;;4.82;2.83;;;;;;;32.64;34.58;95013.72;5022341;28;20180;-74
2022/07/16 10:34:14;;;;;;;5.07;2.58;;;;;;;32.68;34.93;95018.16;5020049;28;20212;-74
2022/07/16 10:36:55;;;;;;;5.57;2.63;;;;;;;32.73;33.84;95008.94;5023618;28;20172;-74
2022/07/16 10:39:25;;;;;;;3.60;1.98;;;;;;;32.77;35.69;95021.56;5023532;28;20217;-73
2022/07/16 10:41:55;;;;;;;4.05;2.33;;;;;;;32.81;33.10;95021.63;5023949;28;20180;-74
2022/07/16 10:44:24;;;;;;;5.97;1.90;;;;;;;32.77;33.75;95015.28;5021570;28;20191;-74
2022/07/16 10:46:55;;;;;;;4.22;2.38;;;;;;;32.69;34.03;95021.66;5024007;28;20254;-74
2022/07/16 10:49:22;;;;;;;2.80;2.60;;;;;;;32.68;34.43;95017.34;5020436;28;20203;-74
2022/07/16 10:52:08;;;;;;;5.68;2.60;;;;;;;32.71;34.42;95017.47;5019797;28;20237;-73
2022/07/16 10:54:39;;;;;;;3.97;2.20;;;;;;;32.68;34.66;95011.91;5022217;28;20680;-72
2022/07/16 10:57:11;;;;;;;5.38;2.10;;;;;;;32.62;34.06;95011.34;5022822;28;20178;-72
2022/07/16 10:59:38;;;;;;;2.15;1.95;;;;;;;32.66;35.71;95019.63;5021469;28;20168;-74
2022/07/16 11:02:09;;;;;;;4.95;1.98;;;;;;;32.65;33.06;95018.03;5017838;28;20176;-74
2022/07/16 11:04:55;;;;;;;4.37;2.67;;;;;;;32.58;34.58;95011.25;4982750;28;1247147;-75
2022/07/16 11:07:24;;;;;;;6.90;2.10;;;;;;;32.44;35.08;94986.28;5020942;28;20219;-74
2022/07/16 11:09:52;;;;;;;6.53;2.22;;;;;;;32.64;33.56;95002.81;5023790;28;20184;-75
2022/07/16 11:12:26;;;;;;;2.45;1.92;;;;;;;32.45;34.21;94963.34;5025455;28;20180;-75
2022/07/16 11:14:54;;;;;;;3.03;2.00;;;;;;;32.74;33.51;95003.13;5021147;28;20223;-76
2022/07/16 11:17:22;;;;;;;8.20;2.17;;;;;;;32.75;32.78;95002.00;5005326;28;20559;-74
2022/07/16 11:19:50;;;;;;;1.95;1.75;;;;;;;32.65;30.98;95001.66;5024249;28;20214;-76
2022/07/16 11:22:17;;;;;;;5.90;2.75;;;;;;;32.42;32.09;94999.50;5020766;28;20184;-75
2022/07/16 11:24:54;;;;;;;10.27;2.65;;;;;;;32.43;32.77;95001.09;5019427;28;20203;-74
2022/07/16 11:27:28;;;;;;;3.78;1.65;;;;;;;32.51;32.87;95002.06;5019731;28;20715;-75
2022/07/16 11:29:58;;;;;;;2.83;2.25;;;;;;;32.48;33.07;94997.31;5022391;28;20176;-75
2022/07/16 11:32:24;;;;;;;4.45;2.10;;;;;;;32.46;33.51;94991.41;5025697;28;20203;-75
2022/07/16 11:34:50;;;;;;;3.67;1.90;;;;;;;32.56;33.07;94993.63;5007397;28;20216;-74
2022/07/16 11:37:15;;;;;;;7.65;2.40;;;;;;;32.62;33.69;94997.69;5024704;28;20207;-76
2022/07/16 11:39:42;;;;;;;51.45;5.38;;;;;;;32.76;32.39;94997.34;5020970;28;20207;-75